Time;durP1;ratioP1;P1;durP2;ratioP2;P2;SDS_P1;SDS_P2;PMS_P1;PMS_P2;Temp;Humidity;BMP_temperature;BMP_pressure;BME280_temperature;BME280_humidity;BME280_pressure;Samples;Min_cycle;Max_cycle;Signal;HPM_P1;HPM_P2
2022/01/06 00:01:48;;;;;;;0.93;0.60;;;0.30;99.90;;;;;;5018875;28;20030;-57
2022/01/06 00:04:13;;;;;;;1.08;0.77;;;0.30;99.90;;;;;;5019869;28;20033;-57
2022/01/06 00:06:41;;;;;;;3.33;0.95;;;0.20;99.90;;;;;;5020061;28;20030;-54
2022/01/06 00:09:09;;;;;;;2.00;0.90;;;0.20;99.90;;;;;;5019458;28;20095;-55
2022/01/06 00:11:35;;;;;;;3.33;0.52;;;0.20;99.90;;;;;;5019406;28;20033;-54
2022/01/06 00:14:17;;;;;;;4.43;1.13;;;0.10;99.90;;;;;;5018824;28;20439;-55
2022/01/06 00:24:26;;;;;;;0.90;0.55;;;0.00;99.90;;;;;;5018677;28;20087;-56
2022/01/06 00:26:51;;;;;;;2.33;0.73;;;0.00;99.90;;;;;;5019757;28;20402;-52
2022/01/06 00:29:17;;;;;;;3.85;1.00;;;0.00;99.90;;;;;;5018920;28;20087;-54
2022/01/06 00:31:43;;;;;;;1.65;0.88;;;0.00;99.90;;;;;;5017766;28;20507;-54
2022/01/06 00:34:10;;;;;;;2.90;1.15;;;0.00;99.90;;;;;;5019214;28;20028;-53
2022/01/06 00:36:45;;;;;;;2.88;1.13;;;0.00;99.90;;;;;;5018344;28;20022;-53
2022/01/06 00:39:11;;;;;;;2.42;0.98;;;-0.10;99.90;;;;;;5017919;28;20061;-52
2022/01/06 00:41:37;;;;;;;2.83;0.80;;;-0.10;99.90;;;;;;5017304;28;20038;-55
2022/01/06 00:44:05;;;;;;;7.55;0.90;;;-0.10;99.90;;;;;;5018449;28;20030;-51
2022/01/06 00:46:30;;;;;;;3.28;0.70;;;-0.10;99.90;;;;;;5017888;28;20458;-51
2022/01/06 00:48:56;;;;;;;2.13;0.70;;;-0.10;99.90;;;;;;5017931;28;20104;-52
2022/01/06 00:51:22;;;;;;;1.92;0.90;;;-0.10;99.90;;;;;;5018642;28;20072;-52
2022/01/06 00:53:48;;;;;;;1.95;1.10;;;-0.20;99.90;;;;;;5018258;28;20368;-55
2022/01/06 00:56:13;;;;;;;2.65;1.10;;;-0.20;99.90;;;;;;5018862;28;20022;-52
2022/01/06 00:58:39;;;;;;;4.65;0.90;;;-0.20;99.90;;;;;;5018546;28;20086;-51
2022/01/06 01:01:05;;;;;;;3.45;1.00;;;-0.30;99.90;;;;;;5018546;28;20095;-56
2022/01/06 01:03:31;;;;;;;3.75;0.60;;;-0.30;99.90;;;;;;5018567;28;20030;-55
2022/01/06 01:05:57;;;;;;;1.42;0.60;;;-0.30;99.90;;;;;;5018175;28;20124;-53
2022/01/06 01:08:25;;;;;;;1.70;0.88;;;-0.30;99.90;;;;;;5018908;28;20495;-54
2022/01/06 01:10:54;;;;;;;1.75;0.77;;;-0.30;99.90;;;;;;5019742;28;20030;-53
2022/01/06 01:13:28;;;;;;;2.20;0.68;;;-0.40;99.90;;;;;;5022635;28;20037;-55
2022/01/06 01:15:56;;;;;;;3.25;0.60;;;-0.40;99.90;;;;;;5021909;28;20657;-54
2022/01/06 01:18:23;;;;;;;1.45;0.60;;;-0.50;99.90;;;;;;5022446;28;20575;-53
2022/01/06 01:20:51;;;;;;;0.70;0.50;;;-0.40;99.90;;;;;;5020775;28;20183;-53
2022/01/06 01:23:18;;;;;;;4.00;0.63;;;-0.40;99.90;;;;;;5022659;28;20497;-54
2022/01/06 01:25:44;;;;;;;1.40;0.52;;;-0.50;99.90;;;;;;5022607;28;20025;-52
2022/01/06 01:28:11;;;;;;;0.80;0.55;;;-0.50;99.90;;;;;;5022622;28;20164;-53
2022/01/06 01:30:53;;;;;;;2.00;0.50;;;-0.50;99.90;;;;;;5023492;28;20376;-52
2022/01/06 01:33:19;;;;;;;3.25;1.00;;;-0.50;99.90;;;;;;5022352;28;20029;-53
2022/01/06 01:35:45;;;;;;;1.33;0.80;;;-0.50;99.90;;;;;;5022187;28;20032;-53
2022/01/06 01:38:11;;;;;;;3.15;0.88;;;-0.50;99.90;;;;;;5021675;28;20030;-53
2022/01/06 01:40:37;;;;;;;2.88;0.68;;;-0.50;99.90;;;;;;5023256;28;20492;-52
2022/01/06 01:43:03;;;;;;;2.20;0.85;;;-0.60;99.90;;;;;;5022525;28;20022;-52
2022/01/06 01:45:32;;;;;;;2.97;1.00;;;-0.60;99.90;;;;;;5022604;28;20025;-50
2022/01/06 01:48:02;;;;;;;4.13;1.10;;;-0.60;99.90;;;;;;5022516;28;20030;-54
2022/01/06 01:50:28;;;;;;;2.85;0.75;;;-0.60;99.90;;;;;;5021379;28;20492;-51
2022/01/06 01:52:58;;;;;;;1.95;1.05;;;-0.60;99.90;;;;;;5022252;28;20100;-50
2022/01/06 01:55:34;;;;;;;3.50;1.00;;;-0.60;99.90;;;;;;5022583;28;20026;-50
2022/01/06 01:58:03;;;;;;;1.08;0.75;;;-0.60;99.90;;;;;;5019837;28;20599;-50
2022/01/06 02:00:30;;;;;;;0.85;0.57;;;-0.60;99.90;;;;;;5019819;28;20048;-52
2022/01/06 02:02:56;;;;;;;2.13;0.90;;;-0.60;99.90;;;;;;5019884;28;20500;-52
2022/01/06 02:05:26;;;;;;;1.98;0.88;;;-0.70;99.90;;;;;;5022356;28;20065;-52
2022/01/06 02:07:54;;;;;;;2.88;0.77;;;-0.70;99.90;;;;;;5021634;28;20384;-51
2022/01/06 02:10:20;;;;;;;5.47;0.68;;;-0.70;99.90;;;;;;5021980;28;20136;-51
2022/01/06 02:12:49;;;;;;;6.63;0.90;;;-0.70;99.90;;;;;;5022417;28;20144;-51
2022/01/06 02:15:15;;;;;;;3.83;0.98;;;-0.80;99.90;;;;;;5021224;28;20033;-53
2022/01/06 02:17:41;;;;;;;2.47;1.15;;;-0.80;99.90;;;;;;5021883;28;20017;-50
2022/01/06 02:20:13;;;;;;;5.10;0.93;;;-0.80;99.90;;;;;;5021303;28;20554;-54
2022/01/06 02:22:39;;;;;;;2.83;0.85;;;-0.80;99.90;;;;;;5020425;28;20033;-49
2022/01/06 02:25:14;;;;;;;4.25;0.90;;;-0.90;99.90;;;;;;5022196;28;20037;-51
2022/01/06 02:27:41;;;;;;;7.03;1.02;;;-0.90;99.90;;;;;;5021643;28;20037;-48
2022/01/06 02:30:08;;;;;;;3.22;0.73;;;-0.90;99.90;;;;;;5020282;28;20045;-52
2022/01/06 02:32:34;;;;;;;4.15;1.23;;;-1.00;99.90;;;;;;5022370;28;20061;-51
2022/01/06 02:35:08;;;;;;;3.70;1.42;;;-1.00;99.90;;;;;;5020653;28;20362;-52
2022/01/06 02:37:34;;;;;;;3.92;0.70;;;-1.00;99.90;;;;;;5020398;28;20029;-50
2022/01/06 02:40:00;;;;;;;1.67;0.60;;;-1.00;99.90;;;;;;5021246;28;20517;-49
2022/01/06 02:42:26;;;;;;;2.70;0.93;;;-1.00;99.90;;;;;;5020799;28;20029;-48
2022/01/06 02:44:52;;;;;;;2.75;0.50;;;-1.10;99.90;;;;;;5020253;28;20025;-49
2022/01/06 02:47:17;;;;;;;3.97;0.65;;;-1.10;99.90;;;;;;5021052;28;20040;-48
2022/01/06 02:49:43;;;;;;;2.83;0.80;;;-1.10;99.90;;;;;;5019563;28;20319;-49
2022/01/06 02:52:08;;;;;;;2.08;1.00;;;-1.10;99.90;;;;;;5020038;28;20029;-52
2022/01/06 02:54:37;;;;;;;2.00;0.75;;;-1.10;99.90;;;;;;5020846;28;20021;-50
2022/01/06 02:57:04;;;;;;;1.65;0.98;;;-1.20;99.90;;;;;;5020898;28;20029;-53
2022/01/06 02:59:29;;;;;;;0.75;0.75;;;-1.20;99.90;;;;;;5020488;28;20447;-50
2022/01/06 03:01:55;;;;;;;1.30;0.80;;;-1.20;99.90;;;;;;5021187;28;20033;-49
2022/01/06 03:04:23;;;;;;;2.50;1.13;;;-1.20;99.90;;;;;;5021625;28;20099;-50
2022/01/06 03:06:49;;;;;;;1.73;0.80;;;-1.20;99.90;;;;;;5021503;28;20110;-51
2022/01/06 03:09:15;;;;;;;2.58;0.95;;;-1.20;99.90;;;;;;5019886;28;20105;-49
2022/01/06 03:11:43;;;;;;;1.52;0.82;;;-1.20;99.90;;;;;;5021837;28;20038;-52
2022/01/06 03:14:09;;;;;;;2.80;0.98;;;-1.20;99.90;;;;;;5021227;28;20029;-48
2022/01/06 03:16:35;;;;;;;3.85;0.70;;;-1.20;99.90;;;;;;5020430;28;20499;-48
2022/01/06 03:19:00;;;;;;;2.20;1.00;;;-1.30;99.90;;;;;;5019929;28;20037;-49
2022/01/06 03:21:26;;;;;;;4.30;0.95;;;-1.30;99.90;;;;;;5020481;28;20117;-49
2022/01/06 03:23:51;;;;;;;2.05;0.60;;;-1.30;99.90;;;;;;5020162;28;20112;-52
2022/01/06 03:26:22;;;;;;;2.95;0.70;;;-1.30;99.90;;;;;;5019756;28;20541;-50
2022/01/06 03:28:47;;;;;;;2.47;0.90;;;-1.40;99.90;;;;;;5019992;28;20033;-50
2022/01/06 03:31:13;;;;;;;0.60;0.55;;;-1.30;99.90;;;;;;5020974;28;20040;-52
2022/01/06 03:33:38;;;;;;;2.60;0.80;;;-1.40;99.90;;;;;;5020815;28;20025;-50
2022/01/06 03:36:04;;;;;;;3.75;0.90;;;-1.40;99.90;;;;;;5018820;28;20037;-52
2022/01/06 03:38:30;;;;;;;2.47;0.65;;;-1.40;99.90;;;;;;5020655;28;20025;-49
2022/01/06 03:40:55;;;;;;;1.23;0.82;;;-1.40;99.90;;;;;;5020319;28;20113;-49
2022/01/06 03:43:23;;;;;;;1.35;0.88;;;-1.40;99.90;;;;;;5020558;28;20489;-49
2022/01/06 03:45:49;;;;;;;0.90;0.65;;;-1.40;99.90;;;;;;5019285;28;20479;-51
2022/01/06 03:48:14;;;;;;;5.25;0.98;;;-1.40;99.90;;;;;;5019556;28;20044;-52
2022/01/06 03:50:41;;;;;;;4.55;1.10;;;-1.40;99.90;;;;;;5020112;28;20040;-51
2022/01/06 03:53:07;;;;;;;1.67;0.90;;;-1.50;99.90;;;;;;5019296;28;20113;-49
2022/01/06 03:55:32;;;;;;;0.75;0.60;;;-1.50;99.90;;;;;;5019806;28;20169;-49
2022/01/06 03:57:58;;;;;;;4.78;0.80;;;-1.50;99.90;;;;;;5017041;28;20036;-52
2022/01/06 04:00:23;;;;;;;1.48;0.75;;;-1.50;99.90;;;;;;5019942;28;20502;-50
2022/01/06 04:02:49;;;;;;;0.77;0.75;;;-1.50;99.90;;;;;;5020332;28;20124;-48
2022/01/06 04:05:15;;;;;;;6.43;1.77;;;-1.50;99.90;;;;;;5019876;28;20037;-49
2022/01/06 04:07:41;;;;;;;1.40;0.88;;;-1.50;99.90;;;;;;5017741;28;20021;-47
2022/01/06 04:10:08;;;;;;;4.00;1.15;;;-1.50;99.90;;;;;;5018854;28;20041;-49
2022/01/06 04:12:35;;;;;;;2.20;1.08;;;-1.60;99.90;;;;;;5019162;28;20558;-50
2022/01/06 04:15:02;;;;;;;3.63;1.30;;;-1.60;99.90;;;;;;5018848;28;20013;-49
2022/01/06 04:17:28;;;;;;;1.40;1.10;;;-1.60;99.90;;;;;;5019344;28;20029;-51
2022/01/06 04:19:53;;;;;;;1.35;0.95;;;-1.60;99.90;;;;;;5019429;28;20033;-49
2022/01/06 04:22:19;;;;;;;1.17;0.80;;;-1.60;99.90;;;;;;5018829;28;20022;-49
2022/01/06 04:24:48;;;;;;;2.85;0.90;;;-1.60;99.90;;;;;;5019880;28;20115;-49
2022/01/06 04:27:13;;;;;;;0.75;0.73;;;-1.60;99.90;;;;;;5018517;28;20027;-52
2022/01/06 04:29:40;;;;;;;2.95;1.10;;;-1.60;99.90;;;;;;5018553;28;20026;-51
2022/01/06 04:32:06;;;;;;;0.88;0.80;;;-1.60;99.90;;;;;;5020070;28;20431;-49
2022/01/06 04:34:31;;;;;;;3.08;0.95;;;-1.60;99.90;;;;;;5018356;28;20044;-48
2022/01/06 04:37:01;;;;;;;0.98;0.77;;;-1.70;99.90;;;;;;5019404;28;20032;-49
2022/01/06 04:39:26;;;;;;;1.80;0.77;;;-1.70;99.90;;;;;;5018349;28;20516;-49
2022/01/06 04:41:52;;;;;;;1.80;0.90;;;-1.70;99.90;;;;;;5019880;28;20286;-48
2022/01/06 04:44:18;;;;;;;3.63;1.20;;;-1.70;99.90;;;;;;5020037;28;20395;-51
2022/01/06 04:46:43;;;;;;;2.72;1.30;;;-1.80;99.90;;;;;;5019300;28;20034;-49
2022/01/06 04:49:09;;;;;;;1.95;0.82;;;-1.80;99.90;;;;;;5017091;28;20034;-49
2022/01/06 04:51:35;;;;;;;2.00;1.05;;;-1.80;99.90;;;;;;5019057;28;20041;-50
2022/01/06 04:54:01;;;;;;;4.85;1.33;;;-1.90;99.90;;;;;;5018789;28;20053;-49
2022/01/06 04:56:26;;;;;;;4.68;1.13;;;-1.90;99.90;;;;;;5017825;28;20076;-49
2022/01/06 04:58:52;;;;;;;5.28;1.60;;;-1.90;99.90;;;;;;5017891;28;20014;-52
2022/01/06 05:01:17;;;;;;;1.52;1.10;;;-1.90;99.90;;;;;;5018609;28;20080;-50
2022/01/06 05:03:43;;;;;;;4.10;1.35;;;-1.90;99.90;;;;;;5017998;28;20037;-51
2022/01/06 05:06:09;;;;;;;1.77;1.20;;;-1.90;99.90;;;;;;5087739;22;20370;-48
2022/01/06 05:08:37;;;;;;;5.60;1.20;;;-1.90;99.90;;;;;;5036126;28;20025;-49
2022/01/06 05:11:03;;;;;;;2.72;1.30;;;-2.00;99.90;;;;;;5037075;28;20095;-49
2022/01/06 05:13:31;;;;;;;3.95;1.17;;;-2.00;99.90;;;;;;5038606;28;20029;-49
2022/01/06 05:15:56;;;;;;;1.45;1.23;;;-2.00;99.90;;;;;;5037232;28;20014;-48
2022/01/06 05:18:22;;;;;;;0.93;0.82;;;-2.00;99.90;;;;;;5037441;28;20018;-48
2022/01/06 05:20:47;;;;;;;5.40;1.13;;;-2.00;99.90;;;;;;5037600;28;20037;-48
2022/01/06 05:23:14;;;;;;;3.00;0.95;;;-2.10;99.90;;;;;;5037555;28;20093;-48
2022/01/06 05:25:40;;;;;;;4.35;1.10;;;-2.10;99.90;;;;;;5037551;28;20025;-48
2022/01/06 05:28:05;;;;;;;3.45;1.30;;;-2.10;99.90;;;;;;5037328;28;20452;-49
2022/01/06 05:30:33;;;;;;;1.50;0.90;;;-2.10;99.90;;;;;;5036791;28;20078;-51
2022/01/06 05:32:59;;;;;;;5.35;1.08;;;-2.10;99.90;;;;;;5036542;28;20025;-48
2022/01/06 05:35:27;;;;;;;4.30;1.27;;;-2.10;99.90;;;;;;5037111;28;20029;-49
2022/01/06 05:37:52;;;;;;;1.10;0.95;;;-2.10;99.90;;;;;;5035548;28;20036;-47
2022/01/06 05:40:18;;;;;;;2.50;0.90;;;-2.20;99.90;;;;;;5035849;28;20025;-49
2022/01/06 05:42:48;;;;;;;3.13;1.08;;;-2.20;99.90;;;;;;5037415;28;20036;-48
2022/01/06 05:45:15;;;;;;;0.98;0.80;;;-2.20;99.90;;;;;;5037361;28;20025;-48
2022/01/06 05:47:41;;;;;;;2.38;0.90;;;-2.20;99.90;;;;;;5036013;28;20018;-48
2022/01/06 05:50:08;;;;;;;2.00;0.85;;;-2.20;99.90;;;;;;5036870;28;20488;-49
2022/01/06 05:52:34;;;;;;;1.42;1.30;;;-2.20;99.90;;;;;;5037925;28;20165;-48
2022/01/06 05:55:00;;;;;;;2.47;1.10;;;-2.30;99.90;;;;;;5038356;28;20020;-49
2022/01/06 05:57:28;;;;;;;1.20;1.00;;;-2.30;99.90;;;;;;5037208;28;20021;-49
2022/01/06 05:59:53;;;;;;;1.80;1.17;;;-2.30;99.90;;;;;;5041036;28;20484;-49
2022/01/06 06:02:19;;;;;;;3.15;0.98;;;-2.30;99.90;;;;;;5040037;28;20036;-47
2022/01/06 06:04:45;;;;;;;1.85;0.73;;;-2.30;99.90;;;;;;5040482;28;20188;-49
2022/01/06 06:07:11;;;;;;;2.60;1.40;;;-2.40;99.90;;;;;;5041086;28;20483;-49
2022/01/06 06:09:37;;;;;;;3.58;1.48;;;-2.40;99.90;;;;;;5040899;28;20088;-49
2022/01/06 06:12:03;;;;;;;2.70;1.00;;;-2.40;99.90;;;;;;5040792;28;20514;-49
2022/01/06 06:14:29;;;;;;;2.22;1.10;;;-2.40;99.90;;;;;;5040964;28;20399;-49
2022/01/06 06:16:54;;;;;;;5.00;1.50;;;-2.40;99.90;;;;;;5040883;28;20025;-49
2022/01/06 06:19:20;;;;;;;4.82;1.30;;;-2.40;99.90;;;;;;5039937;28;20501;-49
2022/01/06 06:21:45;;;;;;;1.73;1.30;;;-2.40;99.90;;;;;;5040270;28;20506;-49
2022/01/06 06:24:11;;;;;;;4.28;1.73;;;-2.40;99.90;;;;;;5039662;28;20033;-49
2022/01/06 06:26:37;;;;;;;1.17;1.08;;;-2.40;99.90;;;;;;5039300;28;20028;-49
2022/01/06 06:29:05;;;;;;;4.07;1.73;;;-2.40;99.90;;;;;;5039495;28;20051;-51
2022/01/06 06:31:30;;;;;;;3.10;1.38;;;-2.40;99.90;;;;;;5039702;28;20125;-49
2022/01/06 06:33:58;;;;;;;7.82;1.98;;;-2.40;99.90;;;;;;5039750;28;20096;-48
2022/01/06 06:36:24;;;;;;;4.97;1.27;;;-2.40;99.90;;;;;;5037702;28;20033;-49
2022/01/06 06:38:49;;;;;;;3.60;1.30;;;-2.40;99.90;;;;;;5039923;28;20385;-52
2022/01/06 06:41:15;;;;;;;3.30;1.25;;;-2.40;99.90;;;;;;5039956;28;20044;-49
2022/01/06 06:43:40;;;;;;;4.15;1.58;;;-2.40;99.90;;;;;;5040252;28;20510;-51
2022/01/06 06:46:06;;;;;;;4.05;1.27;;;-2.50;99.90;;;;;;5039743;28;20044;-49
2022/01/06 06:48:32;;;;;;;1.70;1.38;;;-2.40;99.90;;;;;;5038674;28;20025;-48
2022/01/06 06:50:59;;;;;;;2.40;1.00;;;-2.40;99.90;;;;;;5040245;28;20025;-48
2022/01/06 06:53:24;;;;;;;5.05;1.95;;;-2.50;99.90;;;;;;5039632;28;20025;-49
2022/01/06 06:55:50;;;;;;;3.38;1.65;;;-2.40;99.90;;;;;;5040781;28;20018;-49
2022/01/06 06:58:15;;;;;;;2.75;1.90;;;-2.50;99.90;;;;;;5038923;28;21574;-48
2022/01/06 07:00:41;;;;;;;3.85;1.48;;;-2.40;99.90;;;;;;5039235;28;20558;-47
2022/01/06 07:03:07;;;;;;;4.40;1.75;;;-2.50;99.90;;;;;;5040228;28;20029;-49
2022/01/06 07:05:33;;;;;;;6.00;1.42;;;-2.50;99.90;;;;;;5039455;28;20188;-49
2022/01/06 07:07:58;;;;;;;3.05;1.75;;;-2.40;99.90;;;;;;5037764;28;20099;-49
2022/01/06 07:10:24;;;;;;;4.82;1.90;;;-2.40;99.90;;;;;;5039189;28;20412;-50
2022/01/06 07:12:50;;;;;;;4.03;1.70;;;-2.40;99.90;;;;;;5039633;28;20032;-50
2022/01/06 07:15:17;;;;;;;3.33;1.70;;;-2.40;99.90;;;;;;5038101;28;20513;-51
2022/01/06 07:17:43;;;;;;;3.15;1.42;;;-2.40;99.90;;;;;;5038643;28;20017;-52
2022/01/06 07:20:10;;;;;;;3.67;1.58;;;-2.40;99.90;;;;;;5039350;28;20041;-53
2022/01/06 07:22:36;;;;;;;4.60;1.80;;;-2.40;99.90;;;;;;5038665;28;20087;-51
2022/01/06 07:25:03;;;;;;;2.17;1.63;;;-2.50;99.90;;;;;;5039447;28;20068;-48
2022/01/06 07:27:28;;;;;;;4.57;1.60;;;-2.40;99.90;;;;;;5038226;28;20026;-53
2022/01/06 07:29:54;;;;;;;6.65;1.98;;;-2.50;99.90;;;;;;5039351;28;20491;-48
2022/01/06 07:32:19;;;;;;;2.97;1.80;;;-2.50;99.90;;;;;;5037404;28;20399;-49
2022/01/06 07:34:45;;;;;;;7.97;2.00;;;-2.50;99.90;;;;;;5038795;28;20036;-50
2022/01/06 07:37:10;;;;;;;3.40;1.80;;;-2.50;99.90;;;;;;5038709;28;20021;-51
2022/01/06 07:39:36;;;;;;;6.07;1.33;;;-2.50;99.90;;;;;;5039473;28;20422;-48
2022/01/06 07:42:03;;;;;;;3.20;1.73;;;-2.50;99.90;;;;;;5037860;28;20060;-50
2022/01/06 07:44:29;;;;;;;2.72;1.35;;;-2.50;99.90;;;;;;5036822;28;21297;-49
2022/01/06 07:46:54;;;;;;;7.53;1.85;;;-2.50;99.90;;;;;;5037166;28;20025;-48
2022/01/06 07:49:20;;;;;;;4.20;2.10;;;-2.50;99.90;;;;;;5038346;28;20438;-48
2022/01/06 07:51:45;;;;;;;2.45;1.70;;;-2.50;99.90;;;;;;5038764;28;20040;-49
2022/01/06 07:54:11;;;;;;;4.28;1.63;;;-2.50;99.90;;;;;;5038237;28;20021;-48
2022/01/06 07:56:37;;;;;;;3.38;1.38;;;-2.50;99.90;;;;;;5038618;28;20119;-49
2022/01/06 07:59:03;;;;;;;4.63;1.60;;;-2.50;99.90;;;;;;5036735;28;20017;-51
2022/01/06 08:01:29;;;;;;;4.32;1.58;;;-2.50;99.90;;;;;;5036200;28;20617;-51
2022/01/06 08:03:54;;;;;;;4.53;2.05;;;-2.50;99.90;;;;;;5037877;28;20104;-48
2022/01/06 08:06:20;;;;;;;2.55;1.55;;;-2.50;99.90;;;;;;5038059;28;20035;-52
2022/01/06 08:08:46;;;;;;;2.72;1.17;;;-2.50;99.90;;;;;;5037023;28;20532;-49
2022/01/06 08:11:13;;;;;;;4.43;1.50;;;-2.50;99.90;;;;;;5036834;28;20032;-49
2022/01/06 08:13:39;;;;;;;4.28;1.63;;;-2.50;99.90;;;;;;5038094;28;20021;-50
2022/01/06 08:16:05;;;;;;;5.95;1.60;;;-2.50;99.90;;;;;;5036853;28;20021;-50
2022/01/06 08:18:31;;;;;;;2.88;1.95;;;-2.40;99.90;;;;;;5037261;28;20021;-49
2022/01/06 08:20:58;;;;;;;2.00;1.50;;;-2.40;99.90;;;;;;5036609;28;20028;-49
2022/01/06 08:23:24;;;;;;;8.77;1.95;;;-2.40;99.90;;;;;;5037331;28;20032;-50
2022/01/06 08:25:50;;;;;;;1.75;1.40;;;-2.40;99.90;;;;;;5037500;28;20506;-49
2022/01/06 08:28:15;;;;;;;5.18;1.92;;;-2.40;99.90;;;;;;5038042;28;20383;-49
2022/01/06 08:30:41;;;;;;;2.70;1.70;;;-2.40;99.90;;;;;;5038426;28;20024;-50
2022/01/06 08:33:07;;;;;;;5.65;1.50;;;-2.40;99.90;;;;;;5038466;28;20068;-51
2022/01/06 08:35:32;;;;;;;5.63;1.83;;;-2.40;99.90;;;;;;5037752;28;20045;-49
2022/01/06 08:37:58;;;;;;;3.92;1.70;;;-2.40;99.90;;;;;;5038343;28;20025;-49
2022/01/06 08:40:25;;;;;;;2.85;1.67;;;-2.30;99.90;;;;;;5037646;28;20438;-50
2022/01/06 08:42:51;;;;;;;5.68;2.20;;;-2.30;99.90;;;;;;5038108;28;20017;-48
2022/01/06 08:45:17;;;;;;;4.18;1.70;;;-2.30;99.90;;;;;;5038345;28;20033;-49
2022/01/06 08:47:43;;;;;;;4.28;1.85;;;-2.30;99.90;;;;;;5037725;28;20025;-49
2022/01/06 08:50:09;;;;;;;4.43;2.05;;;-2.30;99.90;;;;;;5038094;28;20037;-50
2022/01/06 08:52:36;;;;;;;4.03;1.75;;;-2.20;99.90;;;;;;5037873;28;20480;-50
2022/01/06 08:55:03;;;;;;;3.75;1.98;;;-2.20;99.90;;;;;;5036465;28;20025;-49
2022/01/06 08:57:29;;;;;;;4.72;1.77;;;-2.10;99.90;;;;;;5037623;28;20021;-48
2022/01/06 08:59:55;;;;;;;4.32;2.08;;;-2.10;99.90;;;;;;5037739;28;20263;-50
2022/01/06 09:02:21;;;;;;;3.75;1.88;;;-2.00;99.90;;;;;;5037735;28;20029;-49
2022/01/06 09:04:46;;;;;;;4.78;1.92;;;-2.00;99.90;;;;;;5038019;28;20021;-49
2022/01/06 09:07:12;;;;;;;7.28;2.03;;;-1.90;99.90;;;;;;5037004;28;20544;-49
2022/01/06 09:09:39;;;;;;;4.70;1.92;;;-1.80;99.90;;;;;;5034335;28;20532;-50
2022/01/06 09:12:11;;;;;;;3.70;1.98;;;-1.80;99.90;;;;;;5036387;28;20056;-48
2022/01/06 09:14:37;;;;;;;7.82;1.67;;;-1.70;99.90;;;;;;5037246;28;20021;-50
2022/01/06 09:17:02;;;;;;;5.00;2.38;;;-1.70;99.90;;;;;;5037880;28;20049;-49
2022/01/06 09:19:28;;;;;;;6.18;2.13;;;-1.60;99.90;;;;;;5038374;28;20431;-50
2022/01/06 09:21:54;;;;;;;2.47;1.70;;;-1.50;99.90;;;;;;5037742;28;20120;-50
2022/01/06 09:24:19;;;;;;;5.50;1.80;;;-1.40;99.90;;;;;;5038632;28;20025;-49
2022/01/06 09:26:45;;;;;;;3.97;2.50;;;-1.30;99.90;;;;;;5037920;28;20045;-51
2022/01/06 09:29:13;;;;;;;6.53;2.10;;;-1.30;99.90;;;;;;5038076;28;20056;-49
2022/01/06 09:31:41;;;;;;;2.65;1.52;;;-1.20;99.90;;;;;;5037926;28;20057;-51
2022/01/06 09:34:08;;;;;;;7.43;1.95;;;-1.10;99.90;;;;;;5040773;28;20138;-49
2022/01/06 09:36:34;;;;;;;5.90;2.30;;;-1.00;99.90;;;;;;5041149;28;20030;-49
2022/01/06 09:39:00;;;;;;;6.68;2.38;;;-0.90;99.90;;;;;;5041543;28;20017;-50
2022/01/06 09:41:27;;;;;;;3.17;2.05;;;-0.90;99.90;;;;;;5039380;28;20090;-50
2022/01/06 09:43:56;;;;;;;3.70;1.60;;;-0.80;99.90;;;;;;5041459;28;20033;-48
2022/01/06 09:46:22;;;;;;;4.22;2.33;;;-0.70;99.90;;;;;;5040898;28;20048;-48
2022/01/06 09:48:49;;;;;;;5.18;1.90;;;-0.60;99.90;;;;;;5040825;28;20036;-52
2022/01/06 09:51:15;;;;;;;2.97;1.73;;;-0.50;99.90;;;;;;5041755;28;20021;-50
2022/01/06 09:53:41;;;;;;;3.17;1.95;;;-0.40;99.90;;;;;;5041631;28;20032;-49
2022/01/06 09:56:07;;;;;;;3.70;1.98;;;-0.30;99.90;;;;;;5040637;28;20022;-50
2022/01/06 09:58:33;;;;;;;5.65;2.22;;;-0.20;99.90;;;;;;5038485;28;20087;-51
2022/01/06 10:00:59;;;;;;;19.08;2.65;;;-0.10;99.90;;;;;;5039537;28;20079;-50
2022/01/06 10:03:37;;;;;;;3.67;2.20;;;0.00;99.90;;;;;;5039695;28;20147;-51
2022/01/06 10:06:19;;;;;;;4.45;1.98;;;0.10;99.90;;;;;;5038188;28;20052;-50
2022/01/06 10:08:52;;;;;;;4.35;1.73;;;0.20;99.90;;;;;;5039222;28;20299;-50
2022/01/06 10:11:20;;;;;;;4.50;2.22;;;0.30;99.90;;;;;;5040284;28;20399;-52
2022/01/06 10:13:58;;;;;;;2.80;1.60;;;0.30;99.90;;;;;;5040395;28;20017;-51
2022/01/06 10:16:25;;;;;;;6.20;2.28;;;0.40;99.90;;;;;;5040816;28;20048;-49
2022/01/06 10:19:02;;;;;;;3.38;1.88;;;0.50;99.90;;;;;;5040377;28;20025;-50
2022/01/06 10:21:37;;;;;;;5.40;2.08;;;0.60;99.90;;;;;;5039928;28;20040;-49
2022/01/06 10:24:15;;;;;;;2.95;1.67;;;0.60;99.90;;;;;;5040411;28;20056;-50
2022/01/06 10:27:04;;;;;;;3.30;2.03;;;0.70;99.90;;;;;;5038954;28;20627;-50
2022/01/06 10:29:39;;;;;;;4.78;2.05;;;0.80;99.90;;;;;;5040510;28;20025;-50
2022/01/06 10:32:10;;;;;;;4.07;1.90;;;0.90;99.90;;;;;;5040079;28;20100;-51
2022/01/06 10:34:42;;;;;;;2.88;1.52;;;1.00;99.90;;;;;;5038730;28;20348;-52
2022/01/06 10:37:17;;;;;;;3.63;2.03;;;1.10;99.90;;;;;;5040000;28;20033;-50
2022/01/06 10:39:44;;;;;;;2.67;1.48;;;1.10;99.90;;;;;;5038790;28;20108;-50
2022/01/06 10:42:10;;;;;;;6.50;2.00;;;1.20;99.90;;;;;;5039507;28;20029;-51
2022/01/06 10:45:16;;;;;;;5.93;1.77;;;1.20;99.90;;;;;;5038837;28;20030;-51
2022/01/06 10:47:43;;;;;;;2.88;1.85;;;1.30;99.90;;;;;;4997506;28;20451;-51
2022/01/06 10:50:17;;;;;;;7.18;3.80;;;1.30;99.90;;;;;;5038664;28;20487;-50
2022/01/06 10:52:46;;;;;;;4.03;2.50;;;1.40;99.90;;;;;;5037203;28;20083;-52
2022/01/06 10:55:16;;;;;;;4.90;1.40;;;1.40;99.90;;;;;;5038790;28;20022;-50
2022/01/06 10:58:11;;;;;;;7.00;6.30;;;1.40;99.90;;;;;;5037960;28;20040;-50
2022/01/06 11:00:41;;;;;;;5.18;1.98;;;1.50;99.90;;;;;;5037706;28;20123;-50
2022/01/06 11:03:09;;;;;;;5.82;2.17;;;1.60;99.90;;;;;;5039624;28;20048;-50
2022/01/06 11:05:36;;;;;;;1.50;1.17;;;1.60;99.90;;;;;;5038648;28;20104;-52
2022/01/06 11:08:04;;;;;;;16.23;11.20;;;1.70;99.90;;;;;;5037212;28;20032;-54
2022/01/06 11:10:29;;;;;;;7.97;4.47;;;1.70;99.90;;;;;;5037277;28;20037;-50
2022/01/06 11:12:55;;;;;;;8.23;3.83;;;1.80;99.90;;;;;;5037278;28;20483;-51
2022/01/06 11:15:21;;;;;;;45.00;25.98;;;1.80;99.90;;;;;;5039716;28;20021;-52
2022/01/06 11:17:47;;;;;;;9.20;5.43;;;1.80;99.90;;;;;;5038841;28;20072;-53
2022/01/06 11:20:15;;;;;;;67.85;43.35;;;1.90;99.90;;;;;;5040227;28;20104;-53
2022/01/06 11:22:52;;;;;;;27.10;16.65;;;1.90;99.90;;;;;;5039002;28;20044;-50
2022/01/06 11:25:34;;;;;;;15.85;11.57;;;2.00;99.90;;;;;;5040070;28;20136;-50
2022/01/06 11:28:08;;;;;;;8.00;5.60;;;2.00;99.90;;;;;;5038572;28;20033;-53
2022/01/06 11:30:49;;;;;;;9.77;5.18;;;2.00;99.90;;;;;;5039246;28;20033;-54
2022/01/06 11:33:15;;;;;;;10.55;4.93;;;2.00;99.90;;;;;;5039438;28;20494;-51
2022/01/06 11:35:57;;;;;;;4.78;3.33;;;2.00;99.90;;;;;;5040171;28;20017;-49
2022/01/06 11:38:26;;;;;;;4.82;2.00;;;2.00;99.90;;;;;;5038302;28;20059;-50
2022/01/06 11:41:07;;;;;;;4.78;1.73;;;2.10;99.90;;;;;;5038957;28;20017;-54
2022/01/06 11:43:40;;;;;;;4.60;1.75;;;2.10;99.90;;;;;;5037324;28;20052;-54
2022/01/06 11:46:07;;;;;;;3.35;0.98;;;2.10;99.90;;;;;;5039416;28;20245;-52
2022/01/06 11:48:43;;;;;;;5.57;1.65;;;2.10;99.90;;;;;;5038027;28;20032;-51
2022/01/06 11:51:09;;;;;;;2.90;1.40;;;2.20;99.90;;;;;;5039076;28;20025;-50
2022/01/06 11:53:34;;;;;;;2.20;1.13;;;2.20;99.90;;;;;;5039536;28;20158;-51
2022/01/06 11:56:13;;;;;;;4.70;1.58;;;2.20;99.90;;;;;;5038996;28;20052;-51
2022/01/06 11:58:38;;;;;;;4.40;1.27;;;2.30;99.90;;;;;;5038227;28;20282;-51
2022/01/06 12:01:07;;;;;;;2.80;1.25;;;2.30;99.90;;;;;;5038608;28;20063;-54
2022/01/06 12:03:39;;;;;;;2.75;1.55;;;2.30;99.90;;;;;;5039182;28;20484;-50
2022/01/06 12:06:07;;;;;;;2.45;1.42;;;2.40;99.90;;;;;;5038095;28;20079;-52
2022/01/06 12:08:35;;;;;;;3.10;1.20;;;2.40;99.90;;;;;;5038406;28;20430;-51
2022/01/06 12:11:02;;;;;;;2.17;1.25;;;2.40;99.90;;;;;;5039043;28;20013;-53
2022/01/06 12:13:27;;;;;;;5.25;1.60;;;2.40;99.90;;;;;;5039643;28;20028;-51
2022/01/06 12:15:55;;;;;;;2.85;1.58;;;2.50;99.90;;;;;;5038912;28;20021;-50
2022/01/06 12:18:23;;;;;;;4.10;0.98;;;2.50;99.90;;;;;;5036804;28;20025;-50
2022/01/06 12:20:49;;;;;;;5.18;1.40;;;2.50;99.90;;;;;;5038351;28;20171;-50
2022/01/06 12:23:16;;;;;;;3.33;1.05;;;2.50;99.90;;;;;;5037554;28;20471;-54
2022/01/06 12:25:55;;;;;;;4.72;1.45;;;2.50;99.90;;;;;;5037181;28;20107;-50
2022/01/06 12:28:21;;;;;;;2.95;1.05;;;2.50;99.90;;;;;;5036194;28;20369;-49
2022/01/06 12:30:47;;;;;;;1.75;0.90;;;2.50;99.90;;;;;;5037883;28;20036;-50
2022/01/06 12:33:14;;;;;;;5.63;1.15;;;2.60;99.90;;;;;;5036848;28;20096;-52
2022/01/06 12:35:47;;;;;;;3.97;0.90;;;2.60;99.90;;;;;;5035318;28;20029;-51
2022/01/06 12:38:14;;;;;;;5.25;1.55;;;2.60;99.90;;;;;;5036620;28;20412;-55
2022/01/06 12:40:42;;;;;;;2.45;0.85;;;2.60;99.90;;;;;;5036827;28;20017;-51
2022/01/06 12:43:23;;;;;;;1.60;1.08;;;2.60;99.90;;;;;;5035043;28;20033;-51
2022/01/06 12:46:12;;;;;;;3.88;1.13;;;2.60;99.90;;;;;;5036916;28;20021;-51
2022/01/06 12:48:41;;;;;;;4.45;1.70;;;2.50;99.90;;;;;;5036608;28;20052;-51
2022/01/06 12:51:11;;;;;;;4.15;1.40;;;2.50;99.90;;;;;;5037942;28;20120;-52
2022/01/06 12:53:47;;;;;;;2.75;1.38;;;2.40;99.90;;;;;;5035758;28;20060;-51
2022/01/06 12:56:29;;;;;;;2.30;1.38;;;2.40;99.90;;;;;;5037462;28;20037;-53
2022/01/06 12:58:57;;;;;;;3.38;1.27;;;2.40;99.90;;;;;;5034491;28;20025;-50